createdAt,value
2023-05-25T00:00:32.000Z,57.6
2023-05-25T00:01:43.000Z,57.6
2023-05-25T00:02:55.000Z,57.6
2023-05-25T00:04:07.000Z,57.5
2023-05-25T00:05:19.000Z,57.5
2023-05-25T00:06:31.000Z,57.5
2023-05-25T00:07:44.000Z,57.5
2023-05-25T00:08:56.000Z,57.5
2023-05-25T00:10:08.000Z,57.6
2023-05-25T00:11:20.000Z,57.5
2023-05-25T00:12:32.000Z,57.6
2023-05-25T00:13:45.000Z,57.6
2023-05-25T00:14:57.000Z,57.6
2023-05-25T00:16:09.000Z,57.6
2023-05-25T00:17:20.000Z,57.6
2023-05-25T00:18:32.000Z,57.6
2023-05-25T00:19:44.000Z,57.7
2023-05-25T00:20:57.000Z,57.7
2023-05-25T00:22:09.000Z,57.7
2023-05-25T00:23:21.000Z,57.7
2023-05-25T00:24:33.000Z,57.7
2023-05-25T00:25:45.000Z,57.7
2023-05-25T00:26:58.000Z,57.7
2023-05-25T00:28:10.000Z,57.7
2023-05-25T00:29:22.000Z,57.7
2023-05-25T00:30:34.000Z,57.7
2023-05-25T00:31:46.000Z,57.7
2023-05-25T00:32:58.000Z,57.7
2023-05-25T00:34:10.000Z,57.8
2023-05-25T00:35:22.000Z,57.8
2023-05-25T00:36:34.000Z,57.8
2023-05-25T00:37:46.000Z,57.8
2023-05-25T00:38:58.000Z,57.8
2023-05-25T00:40:11.000Z,57.8
2023-05-25T00:41:23.000Z,57.8
2023-05-25T00:42:35.000Z,57.8
2023-05-25T00:43:47.000Z,57.8
2023-05-25T00:44:59.000Z,57.8
2023-05-25T00:46:12.000Z,57.8
2023-05-25T00:47:24.000Z,57.8
2023-05-25T00:48:35.000Z,57.8
2023-05-25T00:49:47.000Z,57.8
2023-05-25T00:52:11.000Z,57.8
2023-05-25T00:52:50.425Z,57.8
2023-05-25T00:53:24.000Z,57.8
2023-05-25T00:54:36.000Z,57.8
2023-05-25T00:55:48.000Z,57.8
2023-05-25T00:57:00.000Z,57.8
2023-05-25T00:58:12.000Z,57.8
2023-05-25T00:59:25.000Z,57.9
2023-05-25T01:00:37.000Z,57.9
2023-05-25T01:01:49.000Z,57.9
2023-05-25T01:03:01.000Z,57.9
2023-05-25T01:04:12.000Z,57.9
2023-05-25T01:05:25.000Z,57.9
2023-05-25T01:06:37.000Z,57.9
2023-05-25T01:07:49.000Z,57.9
2023-05-25T01:09:01.000Z,57.9
2023-05-25T01:10:13.000Z,57.9
2023-05-25T01:11:25.000Z,57.9
2023-05-25T01:12:38.000Z,57.9
2023-05-25T01:13:50.000Z,57.9
2023-05-25T01:15:02.000Z,58
2023-05-25T01:16:14.000Z,58
2023-05-25T01:17:26.000Z,58
2023-05-25T01:18:39.000Z,58
2023-05-25T01:19:50.000Z,58
2023-05-25T01:21:02.000Z,58
2023-05-25T01:22:14.000Z,58
2023-05-25T01:23:26.000Z,58
2023-05-25T01:25:51.000Z,58
2023-05-25T01:26:29.631Z,58.1
2023-05-25T01:27:03.000Z,58.1
2023-05-25T01:28:15.000Z,58.1
2023-05-25T01:29:27.000Z,58.1
2023-05-25T01:30:39.000Z,58
2023-05-25T01:31:52.000Z,58.1
2023-05-25T01:33:04.000Z,58.1
2023-05-25T01:34:16.000Z,58.1
2023-05-25T01:35:27.000Z,58.1
2023-05-25T01:36:39.000Z,58.1
2023-05-25T01:37:51.000Z,58.1
2023-05-25T01:39:04.000Z,58
2023-05-25T01:40:16.000Z,58
2023-05-25T01:41:28.000Z,58
2023-05-25T01:42:40.000Z,58.1
2023-05-25T01:43:52.000Z,58.1
2023-05-25T01:45:05.000Z,58.1
2023-05-25T01:46:17.000Z,58.1
2023-05-25T01:47:29.000Z,58.1
2023-05-25T01:48:41.000Z,58.1
2023-05-25T01:49:53.000Z,58.1
2023-05-25T01:52:17.000Z,58.1
2023-05-25T01:52:55.716Z,58.1
2023-05-25T01:53:29.000Z,58.1
2023-05-25T01:54:41.000Z,58.1
2023-05-25T01:55:53.000Z,58.2
2023-05-25T01:57:05.000Z,58.2
2023-05-25T01:58:17.000Z,58.2
2023-05-25T01:59:29.000Z,58.2
2023-05-25T02:00:41.000Z,58.2
2023-05-25T02:01:53.000Z,58.2
2023-05-25T02:03:05.000Z,58.2
2023-05-25T02:04:18.000Z,58.2
2023-05-25T02:05:30.000Z,58.2
2023-05-25T02:06:42.000Z,58.2
2023-05-25T02:07:54.000Z,58.3
2023-05-25T02:09:06.000Z,58.2
2023-05-25T02:10:18.000Z,58.3
2023-05-25T02:11:31.000Z,58.3
2023-05-25T02:12:43.000Z,58.2
2023-05-25T02:15:06.000Z,58.3
2023-05-25T02:15:45.267Z,58.3
2023-05-25T02:16:18.000Z,58.2
2023-05-25T02:17:31.000Z,58.2
2023-05-25T02:18:43.000Z,58.2
2023-05-25T02:19:55.000Z,58.2
2023-05-25T02:21:07.000Z,58.2
2023-05-25T02:22:19.000Z,58.2
2023-05-25T02:23:32.000Z,58.2
2023-05-25T02:24:44.000Z,58.2
2023-05-25T02:25:56.000Z,58.2
2023-05-25T02:27:08.000Z,58.2
2023-05-25T02:28:20.000Z,58.2
2023-05-25T02:29:31.000Z,58.2
2023-05-25T02:30:44.000Z,58.2
2023-05-25T02:31:56.000Z,58.2
2023-05-25T02:33:08.000Z,58.2
2023-05-25T02:34:20.000Z,58.3
2023-05-25T02:35:32.000Z,58.3
2023-05-25T02:36:45.000Z,58.3
2023-05-25T02:37:57.000Z,58.3
2023-05-25T02:39:09.000Z,58.2
2023-05-25T02:40:21.000Z,58.2
2023-05-25T02:42:45.000Z,58.2
2023-05-25T02:43:24.541Z,58.2
2023-05-25T02:43:58.000Z,58.2
2023-05-25T02:45:09.000Z,58.2
2023-05-25T02:46:21.000Z,58.2
2023-05-25T02:47:33.000Z,58.3
2023-05-25T02:48:45.000Z,58.3
2023-05-25T02:49:58.000Z,58.3
2023-05-25T02:51:10.000Z,58.3
2023-05-25T02:52:22.000Z,58.3
2023-05-25T02:53:34.000Z,58.3
2023-05-25T02:54:46.000Z,58.3
2023-05-25T02:55:59.000Z,58.3
2023-05-25T02:57:11.000Z,58.4
2023-05-25T02:58:23.000Z,58.4
2023-05-25T02:59:35.000Z,58.4
2023-05-25T03:00:46.000Z,58.3
2023-05-25T03:01:58.000Z,58.4
2023-05-25T03:03:11.000Z,58.4
2023-05-25T03:04:23.000Z,58.4
2023-05-25T03:05:35.000Z,58.4
2023-05-25T03:06:47.000Z,58.4
2023-05-25T03:07:59.000Z,58.4
2023-05-25T03:09:12.000Z,58.5
2023-05-25T03:10:24.000Z,58.5
2023-05-25T03:11:36.000Z,58.5
2023-05-25T03:12:48.000Z,58.5
2023-05-25T03:14:00.000Z,58.5
2023-05-25T03:15:12.000Z,58.5
2023-05-25T03:16:24.000Z,58.5
2023-05-25T03:17:36.000Z,58.5
2023-05-25T03:18:48.000Z,58.5
2023-05-25T03:20:00.000Z,58.5
2023-05-25T03:21:12.000Z,58.5
2023-05-25T03:22:25.000Z,58.5
2023-05-25T03:23:37.000Z,58.5
2023-05-25T03:24:49.000Z,58.5
2023-05-25T03:26:01.000Z,58.5
2023-05-25T03:27:13.000Z,58.5
2023-05-25T03:28:26.000Z,58.5
2023-05-25T03:29:38.000Z,58.4
2023-05-25T03:30:50.000Z,58.5
2023-05-25T03:32:01.000Z,58.4
2023-05-25T03:33:13.000Z,58.5
2023-05-25T03:34:25.000Z,58.4
2023-05-25T03:35:38.000Z,58.5
2023-05-25T03:36:50.000Z,58.5
2023-05-25T03:38:02.000Z,58.5
2023-05-25T03:40:26.000Z,58.5
2023-05-25T03:41:05.458Z,58.4
2023-05-25T03:41:39.000Z,58.5
2023-05-25T03:42:51.000Z,58.4
2023-05-25T03:44:03.000Z,58.4
2023-05-25T03:46:27.000Z,58.4
2023-05-25T03:47:06.380Z,58.4
2023-05-25T03:47:38.000Z,58.3
2023-05-25T03:48:51.000Z,58.4
2023-05-25T03:50:03.000Z,58.3
2023-05-25T03:51:15.000Z,58.3
2023-05-25T03:52:27.000Z,58.3
2023-05-25T03:53:39.000Z,58.3
2023-05-25T03:54:52.000Z,58.3
2023-05-25T03:56:04.000Z,58.3
2023-05-25T03:57:16.000Z,58.3
2023-05-25T03:58:28.000Z,58.3
2023-05-25T03:59:40.000Z,58.3
2023-05-25T04:00:53.000Z,58.2
2023-05-25T04:02:05.000Z,58.2
2023-05-25T04:03:16.000Z,58.2
2023-05-25T04:04:28.000Z,58.2
2023-05-25T04:05:40.000Z,58.2
2023-05-25T04:06:52.000Z,58.2
2023-05-25T04:08:05.000Z,58.2
2023-05-25T04:09:17.000Z,58.2
2023-05-25T04:10:29.000Z,58.2
2023-05-25T04:11:41.000Z,58.2
2023-05-25T04:12:53.000Z,58.2
2023-05-25T04:14:06.000Z,58.2
2023-05-25T04:15:18.000Z,58.2
2023-05-25T04:16:30.000Z,58.2
2023-05-25T04:17:42.000Z,58.2
2023-05-25T04:18:53.000Z,58.2
2023-05-25T04:20:05.000Z,58.2
2023-05-25T04:21:18.000Z,58.2
2023-05-25T04:22:30.000Z,58.2
2023-05-25T04:23:42.000Z,58.2
2023-05-25T04:24:54.000Z,58.2
2023-05-25T04:26:06.000Z,58.2
2023-05-25T04:27:19.000Z,58.2
2023-05-25T04:28:31.000Z,58.2
2023-05-25T04:29:43.000Z,58.2
2023-05-25T04:30:55.000Z,58.2
2023-05-25T04:32:07.000Z,58.2
2023-05-25T04:33:20.000Z,58.2
2023-05-25T04:34:31.000Z,58.2
2023-05-25T04:35:43.000Z,58.2
2023-05-25T04:36:55.000Z,58
2023-05-25T04:38:07.000Z,58
2023-05-25T04:39:19.000Z,58
2023-05-25T04:40:32.000Z,58
2023-05-25T04:41:44.000Z,58
2023-05-25T04:42:56.000Z,58
2023-05-25T04:45:20.000Z,58
2023-05-25T04:45:59.507Z,58
2023-05-25T04:46:33.000Z,58
2023-05-25T04:47:45.000Z,58
2023-05-25T04:48:57.000Z,58
2023-05-25T04:50:08.000Z,57.9
2023-05-25T04:52:33.000Z,57.9
2023-05-25T04:53:11.637Z,57.9
2023-05-25T04:53:45.000Z,57.9
2023-05-25T04:54:57.000Z,57.9
2023-05-25T04:56:09.000Z,57.9
2023-05-25T04:57:21.000Z,57.9
2023-05-25T04:58:33.000Z,57.9
2023-05-25T04:59:46.000Z,57.8
2023-05-25T05:00:58.000Z,57.8
2023-05-25T05:02:10.000Z,57.7
2023-05-25T05:03:22.000Z,57.7
2023-05-25T05:04:34.000Z,57.6
2023-05-25T05:05:46.000Z,57.6
2023-05-25T05:06:58.000Z,57.6
2023-05-25T05:08:10.000Z,57.6
2023-05-25T05:09:22.000Z,57.6
2023-05-25T05:10:34.000Z,57.6
2023-05-25T05:11:46.000Z,57.6
2023-05-25T05:14:50.003Z,57.7
2023-05-25T05:15:23.000Z,57.7
2023-05-25T05:16:02.200Z,57.7
2023-05-25T05:16:35.000Z,57.7
2023-05-25T05:17:47.000Z,57.7
2023-05-25T05:19:00.000Z,57.6
2023-05-25T05:20:12.000Z,57.6
2023-05-25T05:21:23.000Z,57.5
2023-05-25T05:22:35.000Z,57.4
2023-05-25T05:23:47.000Z,57.3
2023-05-25T05:25:00.000Z,57.1
2023-05-25T05:26:12.000Z,57
2023-05-25T05:27:24.000Z,56.9
2023-05-25T05:28:36.000Z,56.9
2023-05-25T05:29:48.000Z,56.9
2023-05-25T05:31:00.000Z,56.9
2023-05-25T05:32:13.000Z,56.8
2023-05-25T05:33:25.000Z,56.8
2023-05-25T05:34:37.000Z,57
2023-05-25T05:37:00.000Z,57.3
2023-05-25T05:37:40.549Z,57.2
2023-05-25T05:38:13.000Z,57.4
2023-05-25T05:39:25.000Z,57.4
2023-05-25T05:40:37.000Z,57.5
2023-05-25T05:41:49.000Z,57.5
2023-05-25T05:43:01.000Z,57.5
2023-05-25T05:44:14.000Z,57.6
2023-05-25T05:45:26.000Z,57.6
2023-05-25T05:46:38.000Z,57.6
2023-05-25T05:47:50.000Z,57.7
2023-05-25T05:49:02.000Z,57.7
2023-05-25T05:50:14.000Z,57.7
2023-05-25T05:51:27.000Z,57.7
2023-05-25T05:52:38.000Z,57.7
2023-05-25T05:53:50.000Z,57.7
2023-05-25T05:55:02.000Z,57.7
2023-05-25T05:56:14.000Z,57.7
2023-05-25T05:57:27.000Z,57.6
2023-05-25T05:58:39.000Z,57.7
2023-05-25T05:59:50.000Z,57.6
2023-05-25T06:01:02.000Z,57.6
2023-05-25T06:02:14.000Z,57.6
2023-05-25T06:03:27.000Z,57.5
2023-05-25T06:04:39.000Z,57.5
2023-05-25T06:07:03.000Z,57.5
2023-05-25T06:07:42.257Z,57.5
2023-05-25T06:08:15.000Z,57.5
2023-05-25T06:09:27.000Z,57.3
2023-05-25T06:11:52.000Z,57.3
2023-05-25T06:12:31.008Z,57.3
2023-05-25T06:13:04.000Z,57.3
2023-05-25T06:14:16.000Z,57.2
2023-05-25T06:15:27.000Z,57
2023-05-25T06:16:40.000Z,56.9
2023-05-25T06:17:52.000Z,56.6
2023-05-25T06:19:04.000Z,56.6
2023-05-25T06:20:16.000Z,56.4
2023-05-25T06:21:28.000Z,56.5
2023-05-25T06:22:40.000Z,56.5
2023-05-25T06:23:53.000Z,56.5
2023-05-25T06:25:05.000Z,56.4
2023-05-25T06:26:17.000Z,56.2
2023-05-25T06:27:29.000Z,56.2
2023-05-25T06:28:41.000Z,56.3
2023-05-25T06:29:54.000Z,56.6
2023-05-25T06:31:05.000Z,56.8
2023-05-25T06:32:17.000Z,56.9
2023-05-25T06:33:29.000Z,56.7
2023-05-25T06:34:41.000Z,56.7
2023-05-25T06:35:54.000Z,56.8
2023-05-25T06:38:18.000Z,56.8
2023-05-25T06:38:57.128Z,56.7
2023-05-25T06:40:42.000Z,57
2023-05-25T06:41:21.509Z,56.9
2023-05-25T06:41:54.000Z,57
2023-05-25T06:43:07.000Z,57
2023-05-25T06:45:31.000Z,57
2023-05-25T06:46:10.244Z,57
2023-05-25T06:46:42.000Z,57
2023-05-25T06:47:54.000Z,57
2023-05-25T06:49:07.000Z,57
2023-05-25T06:50:19.000Z,56.9
2023-05-25T06:51:31.000Z,56.7
2023-05-25T06:52:43.000Z,56.3
2023-05-25T06:53:55.000Z,56
2023-05-25T06:55:08.000Z,56.1
2023-05-25T06:56:20.000Z,56.4
2023-05-25T06:58:44.000Z,56.3
2023-05-25T06:59:23.321Z,56.4
2023-05-25T06:59:56.000Z,56.3
2023-05-25T07:01:08.000Z,56.1
2023-05-25T07:02:21.000Z,56
2023-05-25T07:03:32.000Z,55.9
2023-05-25T07:04:44.000Z,55.8
2023-05-25T07:05:56.000Z,55.9
2023-05-25T07:07:08.000Z,56.1
2023-05-25T07:09:33.000Z,56.3
2023-05-25T07:10:12.015Z,56.3
2023-05-25T07:10:45.000Z,56.4
2023-05-25T07:11:57.000Z,56.4
2023-05-25T07:13:09.000Z,56.4
2023-05-25T07:14:22.000Z,56.4
2023-05-25T07:15:34.000Z,56.4
2023-05-25T07:16:46.000Z,56.3
2023-05-25T07:17:58.000Z,56.3
2023-05-25T07:19:09.000Z,56.3
2023-05-25T07:20:21.000Z,56.5
2023-05-25T07:21:34.000Z,56.6
2023-05-25T07:22:46.000Z,56.7
2023-05-25T07:23:58.000Z,56.9
2023-05-25T07:26:22.000Z,56.9
2023-05-25T07:27:01.624Z,56.9
2023-05-25T07:27:35.000Z,57.1
2023-05-25T07:28:47.000Z,57.1
2023-05-25T07:29:59.000Z,57.1
2023-05-25T07:31:11.000Z,57
2023-05-25T07:32:23.000Z,56.8
2023-05-25T07:33:35.000Z,56.5
2023-05-25T07:34:48.000Z,56.4
2023-05-25T07:35:59.000Z,56.4
2023-05-25T07:37:11.000Z,56
2023-05-25T07:38:23.000Z,55.6
2023-05-25T07:39:35.000Z,55.3
2023-05-25T07:40:48.000Z,55.2
2023-05-25T07:42:00.000Z,55.3
2023-05-25T07:43:12.000Z,55.1
2023-05-25T07:44:24.000Z,55.2
2023-05-25T07:45:36.000Z,55.3
2023-05-25T07:46:49.000Z,55.3
2023-05-25T07:48:01.000Z,55.3
2023-05-25T07:49:13.000Z,55.3
2023-05-25T07:50:25.000Z,55.1
2023-05-25T07:51:36.000Z,55
2023-05-25T07:52:48.000Z,54.5
2023-05-25T07:55:13.000Z,54.2
2023-05-25T07:55:52.133Z,54.3
2023-05-25T07:56:25.000Z,54.3
2023-05-25T07:57:37.000Z,54.4
2023-05-25T07:58:49.000Z,54.4
2023-05-25T08:00:02.000Z,54.4
2023-05-25T08:01:14.000Z,53.7
2023-05-25T08:02:26.000Z,53.4
2023-05-25T08:03:38.000Z,53.6
2023-05-25T08:04:50.000Z,53.8
2023-05-25T08:06:03.000Z,53.9
2023-05-25T08:07:15.000Z,53.9
2023-05-25T08:08:26.000Z,53.9
2023-05-25T08:09:38.000Z,53.7
2023-05-25T08:10:50.000Z,53.3
2023-05-25T08:12:02.000Z,52.8
2023-05-25T08:13:15.000Z,53.2
2023-05-25T08:14:27.000Z,53.5
2023-05-25T08:15:39.000Z,53.9
2023-05-25T08:16:51.000Z,54.6
2023-05-25T08:18:03.000Z,55
2023-05-25T08:19:16.000Z,54.6
2023-05-25T08:20:28.000Z,54.8
2023-05-25T08:21:40.000Z,55.1
2023-05-25T08:22:52.000Z,55.1
2023-05-25T08:24:03.000Z,55.1
2023-05-25T08:25:16.000Z,55.1
2023-05-25T08:26:28.000Z,55
2023-05-25T08:28:52.000Z,54.8
2023-05-25T08:29:31.360Z,54.8
2023-05-25T08:30:04.000Z,54.6
2023-05-25T08:31:16.000Z,54.4
2023-05-25T08:32:29.000Z,54.1
2023-05-25T08:33:41.000Z,54.1
2023-05-25T08:34:53.000Z,54.4
2023-05-25T08:36:05.000Z,54.6
2023-05-25T08:37:17.000Z,54.7
2023-05-25T08:38:30.000Z,55
2023-05-25T08:39:41.000Z,55.4
2023-05-25T08:40:53.000Z,55.6
2023-05-25T08:42:05.000Z,55.7
2023-05-25T08:43:17.000Z,55.6
2023-05-25T08:44:29.000Z,55.3
2023-05-25T08:45:42.000Z,54.9
2023-05-25T08:46:54.000Z,54.6
2023-05-25T08:48:06.000Z,54.3
2023-05-25T08:49:18.000Z,54.1
2023-05-25T08:50:30.000Z,53.9
2023-05-25T08:51:43.000Z,53.8
2023-05-25T08:52:55.000Z,53.7
2023-05-25T08:54:07.000Z,53.4
2023-05-25T08:55:18.660Z,53.5
2023-05-25T08:56:30.000Z,53.5
2023-05-25T08:57:43.000Z,53.8
2023-05-25T08:58:55.000Z,53.7
2023-05-25T09:00:07.000Z,52.8
2023-05-25T09:01:19.000Z,52.4
2023-05-25T09:02:31.000Z,52.5
2023-05-25T09:03:43.000Z,53.4
2023-05-25T09:04:56.000Z,54
2023-05-25T09:06:08.000Z,54.6
2023-05-25T09:07:20.000Z,55
2023-05-25T09:08:32.000Z,55.1
2023-05-25T09:09:44.000Z,55.2
2023-05-25T09:10:56.000Z,55.2
2023-05-25T09:12:08.000Z,55.2
2023-05-25T09:13:20.000Z,55.2
2023-05-25T09:14:32.000Z,55.1
2023-05-25T09:15:44.000Z,55.2
2023-05-25T09:16:57.000Z,55.4
2023-05-25T09:18:09.000Z,55.5
2023-05-25T09:19:21.000Z,55.6
2023-05-25T09:20:33.000Z,55.5
2023-05-25T09:21:45.000Z,55.5
2023-05-25T09:22:57.000Z,55.5
2023-05-25T09:24:10.000Z,55.4
2023-05-25T09:25:22.000Z,55.4
2023-05-25T09:26:33.000Z,55.5
2023-05-25T09:27:45.000Z,55.1
2023-05-25T09:28:57.000Z,54.3
2023-05-25T09:30:10.000Z,53.4
2023-05-25T09:31:22.000Z,53
2023-05-25T09:32:34.000Z,52.7
2023-05-25T09:33:46.000Z,52.7
2023-05-25T09:34:58.000Z,53.4
2023-05-25T09:36:10.000Z,54
2023-05-25T09:37:23.000Z,54.5
2023-05-25T09:38:35.000Z,54.9
2023-05-25T09:39:47.000Z,55.3
2023-05-25T09:40:59.000Z,55.6
2023-05-25T09:42:10.000Z,55.7
2023-05-25T09:43:23.000Z,55.8
2023-05-25T09:44:35.000Z,55.8
2023-05-25T09:45:47.000Z,55.8
2023-05-25T09:46:59.000Z,55.7
2023-05-25T09:48:11.000Z,55.5
2023-05-25T09:49:24.000Z,55.3
2023-05-25T09:50:36.000Z,55.1
2023-05-25T09:51:48.000Z,54.8
2023-05-25T09:53:00.000Z,54.6
2023-05-25T09:54:12.000Z,53.8
2023-05-25T09:55:24.000Z,53.5
2023-05-25T09:57:48.000Z,52.4
2023-05-25T09:58:28.183Z,53.1
2023-05-25T09:59:00.000Z,51.5
2023-05-25T10:00:12.000Z,49.6
2023-05-25T10:01:23.000Z,49.3
2023-05-25T10:02:36.000Z,47.4
2023-05-25T10:03:48.000Z,44.1
2023-05-25T10:05:00.000Z,41.8
2023-05-25T10:06:12.000Z,40.4
2023-05-25T10:08:37.000Z,38.4
2023-05-25T10:09:15.885Z,39.3
2023-05-25T10:09:49.000Z,39.1
2023-05-25T10:11:01.000Z,40.4
2023-05-25T10:12:13.000Z,42.2
2023-05-25T10:14:37.000Z,44.5
2023-05-25T10:15:16.821Z,43.6
2023-05-25T10:15:50.000Z,44.6
2023-05-25T10:17:01.000Z,45.7
2023-05-25T10:18:13.000Z,46.8
2023-05-25T10:19:25.000Z,47.6
2023-05-25T10:20:37.000Z,48.5
2023-05-25T10:21:50.000Z,49.3
2023-05-25T10:23:02.000Z,49.8
2023-05-25T10:24:14.000Z,50.4
2023-05-25T10:25:26.000Z,50.7
2023-05-25T10:26:38.000Z,50.9
2023-05-25T10:27:50.000Z,51.3
2023-05-25T10:29:03.000Z,51.4
2023-05-25T10:30:15.000Z,51.5
2023-05-25T10:31:27.000Z,51.6
2023-05-25T10:32:38.000Z,51.5
2023-05-25T10:33:50.000Z,51.3
2023-05-25T10:35:03.000Z,49.9
2023-05-25T10:36:15.000Z,45.9
2023-05-25T10:37:27.000Z,44.7
2023-05-25T10:38:39.000Z,43.3
2023-05-25T10:39:51.000Z,42
2023-05-25T10:41:04.000Z,41
2023-05-25T10:42:16.000Z,40.4
2023-05-25T10:43:28.000Z,39.9
2023-05-25T10:44:40.000Z,39.6
2023-05-25T10:45:52.000Z,39.5
2023-05-25T10:47:04.000Z,39.6
2023-05-25T10:48:16.000Z,40.4
2023-05-25T10:49:28.000Z,41.5
2023-05-25T10:50:40.000Z,42.5
2023-05-25T10:51:52.000Z,43.5
2023-05-25T10:53:04.000Z,44.2
2023-05-25T10:54:17.000Z,45.4
2023-05-25T10:55:29.000Z,46.3
2023-05-25T10:56:41.000Z,47.1
2023-05-25T10:57:53.000Z,47.9
2023-05-25T10:59:05.000Z,48.4
2023-05-25T11:00:18.000Z,49.1
2023-05-25T11:01:30.000Z,49.6
2023-05-25T11:02:42.000Z,50.1
2023-05-25T11:03:53.000Z,50.6
2023-05-25T11:05:05.000Z,50.8
2023-05-25T11:06:17.000Z,50.7
2023-05-25T11:07:30.000Z,49.8
2023-05-25T11:08:42.000Z,47.8
2023-05-25T11:09:54.000Z,45.8
2023-05-25T11:11:06.000Z,44.8
2023-05-25T11:12:18.000Z,45.7
2023-05-25T11:13:31.000Z,46.8
2023-05-25T11:14:43.000Z,47.5
2023-05-25T11:15:55.000Z,48.2
2023-05-25T11:17:07.000Z,48.9
2023-05-25T11:18:19.000Z,49.4
2023-05-25T11:19:31.000Z,49.8
2023-05-25T11:20:43.000Z,50.3
2023-05-25T11:21:55.000Z,50.8
2023-05-25T11:23:07.000Z,51.2
2023-05-25T11:24:19.000Z,51.7
2023-05-25T11:25:31.000Z,52.1
2023-05-25T11:26:44.000Z,52.5
2023-05-25T11:27:56.000Z,53
2023-05-25T11:29:08.000Z,53.3
2023-05-25T11:30:20.000Z,53.6
2023-05-25T11:31:32.000Z,54
2023-05-25T11:32:45.000Z,54.1
2023-05-25T11:33:57.000Z,53.9
2023-05-25T11:35:09.000Z,53.8
2023-05-25T11:36:20.000Z,53.7
2023-05-25T11:37:32.000Z,53.2
2023-05-25T11:38:44.000Z,52.2
2023-05-25T11:39:57.000Z,51.4
2023-05-25T11:41:09.000Z,50.7
2023-05-25T11:42:21.000Z,50.3
2023-05-25T11:43:33.000Z,50.1
2023-05-25T11:44:45.000Z,50.5
2023-05-25T11:45:58.000Z,50.7
2023-05-25T11:48:22.000Z,51.3
2023-05-25T11:49:01.433Z,51
2023-05-25T11:49:34.000Z,50.7
2023-05-25T11:50:46.000Z,50
2023-05-25T11:51:59.000Z,49.8
2023-05-25T11:53:10.000Z,49.9
2023-05-25T11:54:22.000Z,50.2
2023-05-25T11:55:34.000Z,50.4
2023-05-25T11:56:46.000Z,50.6
2023-05-25T11:57:58.000Z,50.8
2023-05-25T11:59:11.000Z,51
2023-05-25T12:00:23.000Z,51
2023-05-25T12:01:35.000Z,50.9
2023-05-25T12:02:47.000Z,50.4
2023-05-25T12:03:59.000Z,50.1
2023-05-25T12:05:12.000Z,49.8
2023-05-25T12:06:24.000Z,49.6
2023-05-25T12:07:36.000Z,50
2023-05-25T12:08:48.000Z,50.3
2023-05-25T12:09:59.000Z,50.6
2023-05-25T12:11:12.000Z,50.8
2023-05-25T12:12:24.000Z,51
2023-05-25T12:13:36.000Z,51.1
2023-05-25T12:14:48.000Z,51.3
2023-05-25T12:16:00.000Z,51.6
2023-05-25T12:17:12.000Z,51.9
2023-05-25T12:18:25.000Z,52
2023-05-25T12:19:37.000Z,52
2023-05-25T12:20:49.000Z,52.1
2023-05-25T12:22:01.000Z,52.1
2023-05-25T12:23:13.000Z,52.1
2023-05-25T12:24:26.000Z,52.1
2023-05-25T12:25:37.000Z,52.2
2023-05-25T12:26:49.000Z,52.3
2023-05-25T12:28:01.000Z,52.6
2023-05-25T12:29:13.000Z,52.8
2023-05-25T12:31:38.000Z,53.1
2023-05-25T12:32:17.166Z,53
2023-05-25T12:32:50.000Z,53.3
2023-05-25T12:34:02.000Z,53.5
2023-05-25T12:35:14.000Z,53.4
2023-05-25T12:36:26.000Z,53.4
2023-05-25T12:37:39.000Z,53.3
2023-05-25T12:38:51.000Z,53.2
2023-05-25T12:40:03.000Z,53.1
2023-05-25T12:41:14.000Z,53.1
2023-05-25T12:42:26.000Z,53
2023-05-25T12:43:39.000Z,52.9
2023-05-25T12:44:51.000Z,52.7
2023-05-25T12:46:03.000Z,52.6
2023-05-25T12:47:15.000Z,52.5
2023-05-25T12:48:27.000Z,52.4
2023-05-25T12:49:39.000Z,52.4
2023-05-25T12:50:52.000Z,52.4
2023-05-25T12:52:04.000Z,52.2
2023-05-25T12:53:16.000Z,52.1
2023-05-25T12:54:28.000Z,52.1
2023-05-25T12:55:40.000Z,52.1
2023-05-25T12:56:53.000Z,52.1
2023-05-25T12:58:05.000Z,52.1
2023-05-25T12:59:16.000Z,52.1
2023-05-25T13:00:28.000Z,52.2
2023-05-25T13:01:40.000Z,52.1
2023-05-25T13:02:53.000Z,52.1
2023-05-25T13:04:05.000Z,52.1
2023-05-25T13:05:17.000Z,52.2
2023-05-25T13:06:29.000Z,52.4
2023-05-25T13:07:41.000Z,52.6
2023-05-25T13:08:53.000Z,52.7
2023-05-25T13:10:06.000Z,52.6
2023-05-25T13:11:18.000Z,52.3
2023-05-25T13:12:30.000Z,52.2
2023-05-25T13:13:42.000Z,52.2
2023-05-25T13:14:53.000Z,52.2
2023-05-25T13:16:06.000Z,52.2
2023-05-25T13:17:18.000Z,52.1
2023-05-25T13:18:30.000Z,52
2023-05-25T13:20:54.000Z,52
2023-05-25T13:22:07.000Z,51.9
2023-05-25T13:23:19.000Z,51.8
2023-05-25T13:24:31.000Z,51.8
2023-05-25T13:25:43.000Z,52
2023-05-25T13:26:55.000Z,52.2
2023-05-25T13:29:20.000Z,52.7
2023-05-25T13:29:59.156Z,52.5
2023-05-25T13:31:43.000Z,52.9
2023-05-25T13:32:22.539Z,52.8
2023-05-25T13:32:55.000Z,52.9
2023-05-25T13:34:07.000Z,52.8
2023-05-25T13:35:20.000Z,52.8
2023-05-25T13:36:32.000Z,52.7
2023-05-25T13:37:44.000Z,52.7
2023-05-25T13:38:56.000Z,52.6
2023-05-25T13:40:08.000Z,52.5
2023-05-25T13:41:20.000Z,52.6
2023-05-25T13:42:33.000Z,52.9
2023-05-25T13:43:45.000Z,53.3
2023-05-25T13:44:57.000Z,53.6
2023-05-25T13:46:08.000Z,53.8
2023-05-25T13:47:20.000Z,53.9
2023-05-25T13:48:33.000Z,54
2023-05-25T13:49:45.000Z,54.1
2023-05-25T13:50:57.000Z,54
2023-05-25T13:52:09.000Z,54
2023-05-25T13:53:21.000Z,53.8
2023-05-25T13:54:34.000Z,53.7
2023-05-25T13:55:46.000Z,53.6
2023-05-25T13:56:58.000Z,53.5
2023-05-25T13:58:10.000Z,53.4
2023-05-25T13:59:22.000Z,53.3
2023-05-25T14:00:34.000Z,53.3
2023-05-25T14:01:46.000Z,53.3
2023-05-25T14:02:57.000Z,53.2
2023-05-25T14:04:09.000Z,53
2023-05-25T14:05:21.000Z,52.9
2023-05-25T14:06:33.000Z,52.9
2023-05-25T14:07:46.000Z,53
2023-05-25T14:10:10.000Z,53.2
2023-05-25T14:10:49.530Z,53.1
2023-05-25T14:11:22.000Z,53.2
2023-05-25T14:12:34.000Z,53.2
2023-05-25T14:13:47.000Z,53.2
2023-05-25T14:14:59.000Z,53.2
2023-05-25T14:16:11.000Z,53.3
2023-05-25T14:17:23.000Z,53.3
2023-05-25T14:18:34.000Z,53.3
2023-05-25T14:19:46.000Z,53.3
2023-05-25T14:20:59.000Z,53.3
2023-05-25T14:22:11.000Z,53.2
2023-05-25T14:23:23.000Z,53.3
2023-05-25T14:24:35.000Z,53.4
2023-05-25T14:25:47.000Z,53.5
2023-05-25T14:27:00.000Z,53.7
2023-05-25T14:28:12.000Z,53.8
2023-05-25T14:29:24.000Z,53.9
2023-05-25T14:30:36.000Z,54
2023-05-25T14:31:48.000Z,54
2023-05-25T14:33:00.000Z,54
2023-05-25T14:34:12.000Z,54.1
2023-05-25T14:35:24.000Z,54
2023-05-25T14:36:36.000Z,54
2023-05-25T14:37:48.000Z,54
2023-05-25T14:39:00.000Z,54
2023-05-25T14:40:13.000Z,54.1
2023-05-25T14:41:25.000Z,54.1
2023-05-25T14:42:37.000Z,54.1
2023-05-25T14:43:49.000Z,54.2
2023-05-25T14:45:01.000Z,54.4
2023-05-25T14:46:14.000Z,54.4
2023-05-25T14:47:26.000Z,54.5
2023-05-25T14:48:38.000Z,54.6
2023-05-25T14:49:49.000Z,54.7
2023-05-25T14:51:01.000Z,54.7
2023-05-25T14:52:13.000Z,54.7
2023-05-25T14:53:26.000Z,54.7
2023-05-25T14:54:38.000Z,54.7
2023-05-25T14:55:50.000Z,54.7
2023-05-25T14:57:02.000Z,54.7
2023-05-25T14:59:27.000Z,54.7
2023-05-25T15:00:06.142Z,54.7
2023-05-25T15:00:39.000Z,54.7
2023-05-25T15:01:51.000Z,54.7
2023-05-25T15:03:03.000Z,54.6
2023-05-25T15:04:15.000Z,54.5
2023-05-25T15:05:26.000Z,54.4
2023-05-25T15:06:39.000Z,54.3
2023-05-25T15:07:51.000Z,54.2
2023-05-25T15:09:03.000Z,54
2023-05-25T15:10:15.000Z,53.9
2023-05-25T15:11:27.000Z,53.7
2023-05-25T15:12:40.000Z,53.6
2023-05-25T15:13:52.000Z,53.4
2023-05-25T15:15:04.000Z,53.3
2023-05-25T15:16:16.000Z,53.3
2023-05-25T15:17:28.000Z,53.3
2023-05-25T15:18:40.000Z,53.3
2023-05-25T15:19:53.000Z,53.3
2023-05-25T15:21:04.000Z,53.3
2023-05-25T15:22:16.000Z,53.4
2023-05-25T15:23:28.000Z,53.5
2023-05-25T15:24:40.000Z,53.7
2023-05-25T15:25:53.000Z,53.9
2023-05-25T15:27:05.000Z,54
2023-05-25T15:28:17.000Z,54.1
2023-05-25T15:30:41.000Z,54.2
2023-05-25T15:31:20.960Z,54.1
2023-05-25T15:31:54.000Z,54.2
2023-05-25T15:33:06.000Z,54.3
2023-05-25T15:34:18.000Z,54.4
2023-05-25T15:35:30.000Z,54.5
2023-05-25T15:36:41.000Z,54.5
2023-05-25T15:37:53.000Z,54.6
2023-05-25T15:39:06.000Z,54.7
2023-05-25T15:40:18.000Z,54.6
2023-05-25T15:41:30.000Z,54.7
2023-05-25T15:42:42.000Z,54.7
2023-05-25T15:43:54.000Z,54.7
2023-05-25T15:45:07.000Z,54.7
2023-05-25T15:46:19.000Z,54.8
2023-05-25T15:47:31.000Z,54.8
2023-05-25T15:48:43.000Z,54.9
2023-05-25T15:49:55.000Z,54.9
2023-05-25T15:51:07.000Z,54.9
2023-05-25T15:52:19.000Z,54.9
2023-05-25T15:53:31.000Z,54.9
2023-05-25T15:54:43.000Z,54.8
2023-05-25T15:55:55.000Z,54.8
2023-05-25T15:57:07.000Z,54.8
2023-05-25T15:58:20.000Z,54.7
2023-05-25T15:59:32.000Z,54.5
2023-05-25T16:00:44.000Z,54.4
2023-05-25T16:01:56.000Z,54.2
2023-05-25T16:03:08.000Z,54.2
2023-05-25T16:04:21.000Z,54.1
2023-05-25T16:05:33.000Z,54.1
2023-05-25T16:06:45.000Z,54.2